Terminal Aerodrome Forecast
Issued by NWS

Home | Current Version | Previous Version | Text Only | Print | Product List | Glossary On
Versions: 1 2 3 4 5 6 7 8 9 10 11 12 13 14 15 16 17 18 19 20 21 22
000
FTUS43 KGRR 011300 AAA
TAFJXN
TAF AMD
KJXN 011348Z 0114/0212 19010KT P6SM BKN007
     FM011500 19012G23KT 6SM HZ VCTS BKN010CB
     FM011700 22014G24KT P6SM VCTS BKN035CB
     FM012300 24011KT P6SM BKN040
     FM020500 27006KT P6SM BKN025=

USA.gov is the U.S. government's official web portal to all federal, state and local government web resources and services.